Time;durP1;ratioP1;P1;durP2;ratioP2;P2;SDS_P1;SDS_P2;PMS_P1;PMS_P2;Temp;Humidity;BMP_temperature;BMP_pressure;BME280_temperature;BME280_humidity;BME280_pressure;Samples;Min_cycle;Max_cycle;Signal;HPM_P1;HPM_P2
2021/12/22 00:01:40;;;;;;;12.93;6.63;;;;;;;;;;5032854;28;20116;-81
2021/12/22 00:04:06;;;;;;;15.05;6.45;;;;;;;;;;5033144;28;20080;-81
2021/12/22 00:06:34;;;;;;;11.50;6.55;;;;;;;;;;5033119;28;20040;-80
2021/12/22 00:09:03;;;;;;;10.75;5.57;;;;;;;;;;5031715;28;20033;-80
2021/12/22 00:11:30;;;;;;;12.60;5.53;;;;;;;;;;5034048;28;20025;-82
2021/12/22 00:13:56;;;;;;;11.30;5.88;;;;;;;;;;5034927;28;20025;-81
2021/12/22 00:16:22;;;;;;;10.77;5.50;;;;;;;;;;5014653;28;20069;-81
2021/12/22 00:18:49;;;;;;;14.85;7.18;;;;;;;;;;5028282;28;20037;-81
2021/12/22 00:21:15;;;;;;;9.48;5.20;;;;;;;;;;5027942;28;20473;-80
2021/12/22 00:23:43;;;;;;;13.77;5.90;;;;;;;;;;5004127;28;20026;-82
2021/12/22 00:26:09;;;;;;;9.25;5.85;;;;;;;;;;5028854;28;20377;-81
2021/12/22 00:28:36;;;;;;;13.68;8.27;;;;;;;;;;5001317;28;20484;-82
2021/12/22 00:31:10;;;;;;;14.65;7.63;;;;;;;;;;5027784;28;20029;-81
2021/12/22 00:33:45;;;;;;;18.95;8.02;;;;;;;;;;5022415;28;20029;-82
2021/12/22 00:36:11;;;;;;;13.32;7.13;;;;;;;;;;5007135;28;20030;-82
2021/12/22 00:38:37;;;;;;;14.45;6.93;;;;;;;;;;5031594;28;20040;-81
2021/12/22 00:41:06;;;;;;;17.08;7.57;;;;;;;;;;5030017;28;20029;-82
2021/12/22 00:43:34;;;;;;;15.45;7.45;;;;;;;;;;5036030;28;20480;-81
2021/12/22 00:46:00;;;;;;;18.08;8.68;;;;;;;;;;5033340;28;20026;-84
2021/12/22 00:48:26;;;;;;;18.73;7.70;;;;;;;;;;5031667;28;20034;-80
2021/12/22 00:50:53;;;;;;;17.45;7.57;;;;;;;;;;5013660;28;20033;-81
2021/12/22 00:53:20;;;;;;;16.60;7.38;;;;;;;;;;5011354;28;20032;-81
2021/12/22 00:55:47;;;;;;;17.77;10.75;;;;;;;;;;5019733;28;20022;-82
2021/12/22 00:58:14;;;;;;;32.75;12.57;;;;;;;;;;5024054;28;20029;-82
2021/12/22 01:00:40;;;;;;;35.10;18.90;;;;;;;;;;5025246;28;20033;-82
2021/12/22 01:03:07;;;;;;;45.80;19.40;;;;;;;;;;5002948;28;20026;-82
2021/12/22 01:05:33;;;;;;;49.88;21.15;;;;;;;;;;5027729;28;20017;-81
2021/12/22 01:08:00;;;;;;;46.75;21.23;;;;;;;;;;5011461;28;20051;-81
2021/12/22 01:10:28;;;;;;;48.00;20.88;;;;;;;;;;5031814;28;20037;-83
2021/12/22 01:12:56;;;;;;;49.20;22.42;;;;;;;;;;5026927;28;20350;-81
2021/12/22 01:15:23;;;;;;;50.97;25.60;;;;;;;;;;5023871;28;20044;-83
2021/12/22 01:17:57;;;;;;;68.80;32.17;;;;;;;;;;5027702;28;20042;-82
2021/12/22 01:20:30;;;;;;;58.92;30.15;;;;;;;;;;5033800;28;20067;-82
2021/12/22 01:23:02;;;;;;;68.97;35.72;;;;;;;;;;5018134;28;20034;-83
2021/12/22 01:25:29;;;;;;;63.15;34.47;;;;;;;;;;5035829;28;20119;-81
2021/12/22 01:27:56;;;;;;;63.00;32.45;;;;;;;;;;5031416;28;20069;-81
2021/12/22 01:30:27;;;;;;;70.68;34.25;;;;;;;;;;5034975;28;20040;-83
2021/12/22 01:32:55;;;;;;;70.70;35.13;;;;;;;;;;5036601;28;20079;-84
2021/12/22 01:35:23;;;;;;;68.43;33.65;;;;;;;;;;5017656;28;20032;-82
2021/12/22 01:37:50;;;;;;;63.88;32.67;;;;;;;;;;5035150;28;20029;-82
2021/12/22 01:40:17;;;;;;;63.00;30.92;;;;;;;;;;5034831;28;20098;-82
2021/12/22 01:42:43;;;;;;;72.07;32.88;;;;;;;;;;5031821;28;20041;-81
2021/12/22 01:45:26;;;;;;;62.25;28.83;;;;;;;;;;5035258;28;20044;-81
2021/12/22 01:50:37;;;;;;;55.05;28.23;;;;;;;;;;5029111;28;20052;-82
2021/12/22 01:53:10;;;;;;;62.33;25.80;;;;;;;;;;5027203;28;20468;-81
2021/12/22 01:55:38;;;;;;;64.82;26.23;;;;;;;;;;5003924;28;20029;-83
2021/12/22 01:58:07;;;;;;;55.90;26.52;;;;;;;;;;5030406;28;20045;-81
2021/12/22 02:00:34;;;;;;;63.90;25.90;;;;;;;;;;5026993;28;20108;-81
2021/12/22 02:03:00;;;;;;;35.03;15.20;;;;;;;;;;5033911;28;20029;-81
2021/12/22 02:05:26;;;;;;;34.78;14.40;;;;;;;;;;5035072;28;20017;-81
2021/12/22 02:07:57;;;;;;;30.50;13.80;;;;;;;;;;5035150;28;20040;-81
2021/12/22 02:10:37;;;;;;;30.23;12.25;;;;;;;;;;5028929;28;20415;-81
2021/12/22 02:13:04;;;;;;;27.42;11.43;;;;;;;;;;5016885;28;20021;-80
2021/12/22 02:15:34;;;;;;;26.35;12.30;;;;;;;;;;5016134;28;20032;-82
2021/12/22 02:18:03;;;;;;;27.75;12.07;;;;;;;;;;5032916;28;20201;-82
2021/12/22 02:20:29;;;;;;;32.22;14.18;;;;;;;;;;5035171;28;20375;-82
2021/12/22 02:22:56;;;;;;;50.95;14.13;;;;;;;;;;5016191;28;20025;-83
2021/12/22 02:25:31;;;;;;;64.93;16.80;;;;;;;;;;5015908;28;20029;-83
2021/12/22 02:27:59;;;;;;;44.97;14.38;;;;;;;;;;5033269;28;20491;-81
2021/12/22 02:30:28;;;;;;;33.55;11.32;;;;;;;;;;5010782;28;20025;-84
2021/12/22 02:35:42;;;;;;;15.77;7.47;;;;;;;;;;5022204;28;20021;-82
2021/12/22 02:38:14;;;;;;;20.17;7.57;;;;;;;;;;5015228;28;20026;-82
2021/12/22 02:40:41;;;;;;;21.40;8.35;;;;;;;;;;5032900;28;20025;-82
2021/12/22 02:43:08;;;;;;;23.38;7.88;;;;;;;;;;5032520;28;20511;-82
2021/12/22 02:45:34;;;;;;;26.60;9.10;;;;;;;;;;5015442;28;20052;-82
2021/12/22 02:48:01;;;;;;;27.38;7.97;;;;;;;;;;5031903;28;20469;-82
2021/12/22 02:50:28;;;;;;;31.67;11.15;;;;;;;;;;5030491;28;20018;-83
2021/12/22 02:55:42;;;;;;;24.20;9.10;;;;;;;;;;5026089;28;20041;-82
2021/12/22 02:58:17;;;;;;;25.17;8.50;;;;;;;;;;5025589;28;20100;-83
2021/12/22 03:00:50;;;;;;;36.25;11.82;;;;;;;;;;5006384;28;20037;-82
2021/12/22 03:03:33;;;;;;;30.17;10.02;;;;;;;;;;5026143;28;20113;-82
2021/12/22 03:06:06;;;;;;;35.90;12.75;;;;;;;;;;5034231;28;20022;-81
2021/12/22 03:08:32;;;;;;;43.22;13.98;;;;;;;;;;5019266;28;21356;-85
2021/12/22 03:10:59;;;;;;;61.25;18.67;;;;;;;;;;5018013;28;20025;-82
2021/12/22 03:13:25;;;;;;;45.03;16.05;;;;;;;;;;5029868;28;20361;-83
2021/12/22 03:15:52;;;;;;;62.58;23.98;;;;;;;;;;5027248;28;20021;-83
2021/12/22 03:18:18;;;;;;;66.60;32.25;;;;;;;;;;5011303;28;20056;-84
2021/12/22 03:20:51;;;;;;;65.47;32.55;;;;;;;;;;5026806;28;20029;-82
2021/12/22 03:23:17;;;;;;;67.53;32.97;;;;;;;;;;5028449;28;20029;-82
2021/12/22 03:25:43;;;;;;;72.40;34.90;;;;;;;;;;5012542;28;20028;-85
2021/12/22 03:28:12;;;;;;;73.10;35.63;;;;;;;;;;5007352;28;20376;-84
2021/12/22 03:30:38;;;;;;;80.35;39.42;;;;;;;;;;5027818;28;20076;-83
2021/12/22 03:33:05;;;;;;;75.82;37.15;;;;;;;;;;5009565;28;20025;-85
2021/12/22 03:35:34;;;;;;;93.78;41.70;;;;;;;;;;5025874;28;20026;-83
2021/12/22 03:38:01;;;;;;;84.97;34.13;;;;;;;;;;5027060;28;20018;-83
2021/12/22 03:40:28;;;;;;;85.68;35.25;;;;;;;;;;5011386;28;20033;-84
2021/12/22 03:42:58;;;;;;;100.40;36.95;;;;;;;;;;5008933;28;20420;-83
2021/12/22 03:45:24;;;;;;;100.70;38.72;;;;;;;;;;5005053;28;20108;-83
2021/12/22 03:47:51;;;;;;;80.88;36.08;;;;;;;;;;5020666;28;20100;-85
2021/12/22 03:50:17;;;;;;;64.63;22.23;;;;;;;;;;5007765;28;20025;-82
2021/12/22 03:52:45;;;;;;;53.05;22.05;;;;;;;;;;5023463;28;20026;-83
2021/12/22 03:55:12;;;;;;;46.38;16.65;;;;;;;;;;5023662;28;20132;-83
2021/12/22 03:57:38;;;;;;;28.27;13.85;;;;;;;;;;5023814;28;20087;-85
2021/12/22 04:00:06;;;;;;;29.58;12.02;;;;;;;;;;5026714;28;20441;-84
2021/12/22 04:02:33;;;;;;;28.95;12.50;;;;;;;;;;5010963;28;20372;-85
2021/12/22 04:05:00;;;;;;;41.20;15.93;;;;;;;;;;5018183;28;20099;-84
2021/12/22 04:07:26;;;;;;;45.08;14.55;;;;;;;;;;5007927;28;20041;-84
2021/12/22 04:09:53;;;;;;;36.92;15.13;;;;;;;;;;5020546;28;20616;-87
2021/12/22 04:12:19;;;;;;;37.83;14.02;;;;;;;;;;5010278;28;20022;-84
2021/12/22 04:14:46;;;;;;;30.80;13.02;;;;;;;;;;5028613;28;20068;-82
2021/12/22 04:17:12;;;;;;;41.47;14.63;;;;;;;;;;5004779;28;20128;-86
2021/12/22 04:19:39;;;;;;;45.28;13.85;;;;;;;;;;5022730;28;20025;-82
2021/12/22 04:22:06;;;;;;;32.53;11.90;;;;;;;;;;5004762;28;20125;-84
2021/12/22 04:24:33;;;;;;;33.15;13.70;;;;;;;;;;5006497;28;20146;-82
2021/12/22 04:27:00;;;;;;;33.53;11.30;;;;;;;;;;5025622;28;20142;-83
2021/12/22 04:29:32;;;;;;;40.15;11.60;;;;;;;;;;5028356;28;20125;-83
2021/12/22 04:31:58;;;;;;;31.20;7.97;;;;;;;;;;5000777;28;20028;-83
2021/12/22 04:34:25;;;;;;;21.83;8.27;;;;;;;;;;5026088;28;20032;-84
2021/12/22 04:36:51;;;;;;;25.33;8.88;;;;;;;;;;5024070;28;20029;-82
2021/12/22 04:39:18;;;;;;;21.15;7.68;;;;;;;;;;5006910;28;20053;-84
2021/12/22 04:41:44;;;;;;;24.17;7.38;;;;;;;;;;5022278;28;20484;-83
2021/12/22 04:44:10;;;;;;;27.80;9.30;;;;;;;;;;5020925;28;20076;-83
2021/12/22 04:46:37;;;;;;;20.80;8.05;;;;;;;;;;5020316;28;20021;-83
2021/12/22 04:49:04;;;;;;;25.52;8.65;;;;;;;;;;5023524;28;20032;-82
2021/12/22 04:51:32;;;;;;;24.70;9.25;;;;;;;;;;5020967;28;20202;-84
2021/12/22 04:56:25;;;;;;;25.25;10.65;;;;;;;;;;5022919;28;20099;-82
2021/12/22 04:58:51;;;;;;;29.67;11.25;;;;;;;;;;5027141;28;20022;-85
2021/12/22 05:01:19;;;;;;;33.42;11.98;;;;;;;;;;5019414;28;20397;-83
2021/12/22 05:03:45;;;;;;;22.15;8.82;;;;;;;;;;5028759;28;20534;-83
2021/12/22 05:06:11;;;;;;;24.77;9.52;;;;;;;;;;5025674;28;20034;-83
2021/12/22 05:08:38;;;;;;;27.40;8.65;;;;;;;;;;5028953;28;20048;-84
2021/12/22 05:11:04;;;;;;;18.95;9.00;;;;;;;;;;5007036;28;20025;-88
2021/12/22 05:13:33;;;;;;;18.77;7.45;;;;;;;;;;5008543;28;20033;-85
2021/12/22 05:15:59;;;;;;;12.43;6.47;;;;;;;;;;5031787;28;20101;-86
2021/12/22 05:18:48;;;;;;;12.20;6.00;;;;;;;;;;5029358;28;20494;-83
2021/12/22 05:21:12;;;;;;;11.98;6.25;;;;;;;;;;5029630;28;20504;-88
2021/12/22 05:23:38;;;;;;;13.43;6.47;;;;;;;;;;5030725;28;20040;-84
2021/12/22 05:26:05;;;;;;;13.43;5.90;;;;;;;;;;5020218;28;20085;-83
2021/12/22 05:28:31;;;;;;;15.43;6.30;;;;;;;;;;5023434;28;20057;-83
2021/12/22 05:31:00;;;;;;;16.05;6.97;;;;;;;;;;5025340;28;20034;-83
2021/12/22 05:33:27;;;;;;;20.88;7.85;;;;;;;;;;5025481;28;20485;-82
2021/12/22 05:35:53;;;;;;;36.05;16.63;;;;;;;;;;5005548;28;20026;-83
2021/12/22 05:38:23;;;;;;;42.67;22.58;;;;;;;;;;5009097;28;20021;-82
2021/12/22 05:40:49;;;;;;;61.60;35.22;;;;;;;;;;5025120;28;20036;-82
2021/12/22 05:43:15;;;;;;;67.63;37.47;;;;;;;;;;5015600;28;20030;-83
2021/12/22 05:45:42;;;;;;;60.17;35.45;;;;;;;;;;5025321;28;20087;-83
2021/12/22 05:48:16;;;;;;;53.50;32.90;;;;;;;;;;5026347;28;20026;-82
2021/12/22 05:50:45;;;;;;;47.40;29.33;;;;;;;;;;5027805;28;20440;-82
2021/12/22 05:53:12;;;;;;;52.63;26.90;;;;;;;;;;5034613;28;20025;-81
2021/12/22 05:55:38;;;;;;;42.58;25.48;;;;;;;;;;5018144;28;20042;-82
2021/12/22 05:58:10;;;;;;;38.45;23.63;;;;;;;;;;5032979;28;20025;-83
2021/12/22 06:00:37;;;;;;;42.65;24.48;;;;;;;;;;5013061;28;20077;-84
2021/12/22 06:03:06;;;;;;;34.35;19.02;;;;;;;;;;5029709;28;20039;-84
2021/12/22 06:05:33;;;;;;;25.77;15.57;;;;;;;;;;5029283;28;20491;-82
2021/12/22 06:07:59;;;;;;;29.23;16.92;;;;;;;;;;5020455;28;20040;-82
2021/12/22 06:10:25;;;;;;;26.98;14.82;;;;;;;;;;5027665;28;20048;-84
2021/12/22 06:12:52;;;;;;;22.40;14.05;;;;;;;;;;5024919;28;20449;-82
2021/12/22 06:15:18;;;;;;;26.27;13.48;;;;;;;;;;5011453;28;20083;-83
2021/12/22 06:17:54;;;;;;;22.95;10.27;;;;;;;;;;5027678;28;20038;-82
2021/12/22 06:20:21;;;;;;;17.02;9.88;;;;;;;;;;5026603;28;20504;-83
2021/12/22 06:22:50;;;;;;;20.02;10.63;;;;;;;;;;5024080;28;20099;-84
2021/12/22 06:25:17;;;;;;;21.20;9.95;;;;;;;;;;5023060;28;20033;-83
2021/12/22 06:27:46;;;;;;;18.67;8.70;;;;;;;;;;5027132;28;20022;-82
2021/12/22 06:30:13;;;;;;;19.60;8.50;;;;;;;;;;5011338;28;20029;-83
2021/12/22 06:32:41;;;;;;;19.98;9.63;;;;;;;;;;5007308;28;20502;-83
2021/12/22 06:35:08;;;;;;;20.55;9.75;;;;;;;;;;5027111;28;20034;-82
2021/12/22 06:37:38;;;;;;;15.73;9.40;;;;;;;;;;5024405;28;20044;-83
2021/12/22 06:40:05;;;;;;;21.83;10.15;;;;;;;;;;5012111;28;20083;-82
2021/12/22 06:42:32;;;;;;;16.00;8.98;;;;;;;;;;5028811;28;20048;-83
2021/12/22 06:45:01;;;;;;;19.05;9.48;;;;;;;;;;5029393;28;20033;-82
2021/12/22 06:47:28;;;;;;;19.88;10.15;;;;;;;;;;5027749;28;20511;-84
2021/12/22 06:49:54;;;;;;;17.40;10.30;;;;;;;;;;5008605;28;21876;-82
2021/12/22 06:52:20;;;;;;;19.13;10.98;;;;;;;;;;5027372;28;20544;-85
2021/12/22 06:54:47;;;;;;;20.50;9.90;;;;;;;;;;5029793;28;20029;-82
2021/12/22 06:57:16;;;;;;;17.10;9.85;;;;;;;;;;5016598;28;20021;-81
2021/12/22 06:59:42;;;;;;;24.33;10.70;;;;;;;;;;5035812;28;20112;-82
2021/12/22 07:02:08;;;;;;;17.52;9.52;;;;;;;;;;5019863;28;20037;-82
2021/12/22 07:04:35;;;;;;;18.52;8.73;;;;;;;;;;5035916;28;20033;-84
2021/12/22 07:07:01;;;;;;;20.95;8.95;;;;;;;;;;5031845;28;20030;-83
2021/12/22 07:09:28;;;;;;;15.10;9.50;;;;;;;;;;5027113;28;20472;-85
2021/12/22 07:11:54;;;;;;;21.25;10.20;;;;;;;;;;5025946;28;20025;-84
2021/12/22 07:14:21;;;;;;;19.50;10.68;;;;;;;;;;5025378;28;20025;-82
2021/12/22 07:16:47;;;;;;;23.17;11.57;;;;;;;;;;5020999;28;21300;-84
2021/12/22 07:19:14;;;;;;;21.02;11.48;;;;;;;;;;5022260;28;20133;-85
2021/12/22 07:21:40;;;;;;;27.02;11.18;;;;;;;;;;5022053;28;20045;-84
2021/12/22 07:24:07;;;;;;;30.20;13.65;;;;;;;;;;5011305;28;20112;-83
2021/12/22 07:26:34;;;;;;;24.95;12.90;;;;;;;;;;5007219;28;20431;-84
2021/12/22 07:29:00;;;;;;;28.75;13.13;;;;;;;;;;5006972;28;20035;-83
2021/12/22 07:31:27;;;;;;;23.17;12.13;;;;;;;;;;5001264;28;20455;-83
2021/12/22 07:34:12;;;;;;;26.88;12.07;;;;;;;;;;5005888;28;20017;-82
2021/12/22 07:36:42;;;;;;;26.05;13.15;;;;;;;;;;5009528;28;20045;-82
2021/12/22 07:39:09;;;;;;;24.80;13.13;;;;;;;;;;5029379;28;20488;-81
2021/12/22 07:41:42;;;;;;;28.80;13.15;;;;;;;;;;5009094;28;20393;-83
2021/12/22 07:44:09;;;;;;;26.67;11.95;;;;;;;;;;5024821;28;20124;-83
2021/12/22 07:46:35;;;;;;;28.02;12.70;;;;;;;;;;5027391;28;20453;-83
2021/12/22 07:49:04;;;;;;;26.23;12.27;;;;;;;;;;5008015;28;20532;-82
2021/12/22 07:51:30;;;;;;;20.00;12.07;;;;;;;;;;5004838;28;20105;-82
2021/12/22 07:53:57;;;;;;;20.05;10.25;;;;;;;;;;5026124;28;20036;-84
2021/12/22 07:56:23;;;;;;;19.20;9.63;;;;;;;;;;5031811;28;20029;-83
2021/12/22 07:58:51;;;;;;;16.02;8.02;;;;;;;;;;5026936;28;20365;-82
2021/12/22 08:01:18;;;;;;;19.20;8.23;;;;;;;;;;5009936;28;20416;-83
2021/12/22 08:03:44;;;;;;;19.40;9.18;;;;;;;;;;5027073;28;20033;-83
2021/12/22 08:06:10;;;;;;;19.00;9.75;;;;;;;;;;5005646;28;20476;-83
2021/12/22 08:08:37;;;;;;;16.08;8.77;;;;;;;;;;5024145;28;20116;-86
2021/12/22 08:11:03;;;;;;;19.00;9.07;;;;;;;;;;5007902;28;20021;-82
2021/12/22 08:13:29;;;;;;;15.85;8.27;;;;;;;;;;5008958;28;20455;-82
2021/12/22 08:15:56;;;;;;;17.90;8.55;;;;;;;;;;5021027;28;20040;-82
2021/12/22 08:18:24;;;;;;;19.88;9.75;;;;;;;;;;5003358;28;20555;-82
2021/12/22 08:20:50;;;;;;;12.95;7.93;;;;;;;;;;5022864;28;21192;-83
2021/12/22 08:23:20;;;;;;;18.15;9.15;;;;;;;;;;5007171;28;20130;-84
2021/12/22 08:25:47;;;;;;;20.10;8.60;;;;;;;;;;5005281;28;20032;-84
2021/12/22 08:28:13;;;;;;;17.10;8.55;;;;;;;;;;5025309;28;20018;-82
2021/12/22 08:30:40;;;;;;;21.15;10.18;;;;;;;;;;5013184;28;20060;-82
2021/12/22 08:33:13;;;;;;;27.42;12.05;;;;;;;;;;5030495;28;20465;-83
2021/12/22 08:38:50;;;;;;;20.75;11.48;;;;;;;;;;5025703;28;20030;-83
2021/12/22 08:41:21;;;;;;;24.92;11.15;;;;;;;;;;5030473;28;20384;-82
2021/12/22 08:43:48;;;;;;;29.73;12.32;;;;;;;;;;5005306;28;20079;-84
2021/12/22 08:46:14;;;;;;;26.42;11.85;;;;;;;;;;5013587;28;20063;-84
2021/12/22 08:48:41;;;;;;;23.00;12.63;;;;;;;;;;5024456;28;20445;-83
2021/12/22 08:51:07;;;;;;;25.58;12.82;;;;;;;;;;5008198;28;20164;-84
2021/12/22 08:53:33;;;;;;;25.75;14.35;;;;;;;;;;5014991;28;20402;-85
2021/12/22 08:56:00;;;;;;;27.73;15.13;;;;;;;;;;5035686;28;20073;-83
2021/12/22 08:58:27;;;;;;;24.90;13.02;;;;;;;;;;5031473;28;20346;-83
2021/12/22 09:00:54;;;;;;;25.05;12.68;;;;;;;;;;5019828;28;20022;-86
2021/12/22 09:03:20;;;;;;;22.70;11.65;;;;;;;;;;5030432;28;20048;-83
2021/12/22 09:05:46;;;;;;;20.60;11.30;;;;;;;;;;5030224;28;20018;-87
2021/12/22 09:08:14;;;;;;;22.65;11.63;;;;;;;;;;5030809;28;20077;-85
2021/12/22 09:10:40;;;;;;;23.23;11.00;;;;;;;;;;5033251;28;20033;-83
2021/12/22 09:13:06;;;;;;;16.88;8.93;;;;;;;;;;5028895;28;20030;-83
2021/12/22 09:15:33;;;;;;;18.40;10.90;;;;;;;;;;5026738;28;20022;-85
2021/12/22 09:17:59;;;;;;;22.48;9.88;;;;;;;;;;5026766;28;20048;-84
2021/12/22 09:20:26;;;;;;;22.40;11.65;;;;;;;;;;5031059;28;20095;-85
2021/12/22 09:22:52;;;;;;;21.85;10.45;;;;;;;;;;5007681;28;20027;-84
2021/12/22 09:25:18;;;;;;;22.45;10.30;;;;;;;;;;5034158;28;20099;-88
2021/12/22 09:27:45;;;;;;;27.20;13.82;;;;;;;;;;5036390;28;20033;-84
2021/12/22 09:30:11;;;;;;;16.95;10.80;;;;;;;;;;5032216;28;20503;-84
2021/12/22 09:32:38;;;;;;;20.20;9.70;;;;;;;;;;5033176;28;20373;-82
2021/12/22 09:35:04;;;;;;;20.25;10.20;;;;;;;;;;5028743;28;20030;-83
2021/12/22 09:37:31;;;;;;;19.58;9.50;;;;;;;;;;5031534;28;20013;-83
2021/12/22 09:40:00;;;;;;;24.77;11.07;;;;;;;;;;5031832;28;20021;-82
2021/12/22 09:42:27;;;;;;;22.30;11.65;;;;;;;;;;5021689;28;20026;-84
2021/12/22 09:44:53;;;;;;;17.75;10.40;;;;;;;;;;5022471;28;20033;-84
2021/12/22 09:47:32;;;;;;;29.98;13.00;;;;;;;;;;5028711;28;20022;-83
2021/12/22 09:50:10;;;;;;;27.55;14.32;;;;;;;;;;5026285;28;20025;-83
2021/12/22 09:52:38;;;;;;;26.27;15.55;;;;;;;;;;5000178;28;21628;-83
2021/12/22 09:55:05;;;;;;;32.25;16.75;;;;;;;;;;5023144;28;20100;-82
2021/12/22 09:57:35;;;;;;;31.77;17.23;;;;;;;;;;5004124;28;20033;-82
2021/12/22 10:00:02;;;;;;;29.33;16.90;;;;;;;;;;5027281;28;20032;-82
2021/12/22 10:02:30;;;;;;;32.92;17.05;;;;;;;;;;5025963;28;20030;-83
2021/12/22 10:05:00;;;;;;;30.38;15.98;;;;;;;;;;5023501;28;20095;-82
2021/12/22 10:07:30;;;;;;;36.10;17.70;;;;;;;;;;5004242;28;20538;-82
2021/12/22 10:10:02;;;;;;;55.22;25.30;;;;;;;;;;5025835;28;20048;-84
2021/12/22 10:12:29;;;;;;;36.58;17.40;;;;;;;;;;5029955;28;20021;-82
2021/12/22 10:15:00;;;;;;;34.78;18.17;;;;;;;;;;5008720;28;20033;-82
2021/12/22 10:17:37;;;;;;;41.63;18.70;;;;;;;;;;5023813;28;20034;-82
2021/12/22 10:20:08;;;;;;;30.92;16.92;;;;;;;;;;5026840;28;20049;-82
2021/12/22 10:22:39;;;;;;;35.15;19.65;;;;;;;;;;5024901;28;20023;-83
2021/12/22 10:25:11;;;;;;;30.70;18.60;;;;;;;;;;5030023;28;20029;-82
2021/12/22 10:27:39;;;;;;;31.27;18.65;;;;;;;;;;5028915;28;20026;-84
2021/12/22 10:30:26;;;;;;;38.38;21.67;;;;;;;;;;5021704;28;20037;-84
2021/12/22 10:33:13;;;;;;;36.28;23.23;;;;;;;;;;5009617;28;20105;-82
2021/12/22 10:35:40;;;;;;;61.67;34.60;;;;;;;;;;5025526;28;20483;-83
2021/12/22 10:38:09;;;;;;;59.08;36.22;;;;;;;;;;5010938;28;20036;-83
2021/12/22 10:40:37;;;;;;;56.63;34.05;;;;;;;;;;5028671;28;20030;-82
2021/12/22 10:43:04;;;;;;;63.58;34.15;;;;;;;;;;5009104;28;20061;-83
2021/12/22 10:45:31;;;;;;;53.90;36.42;;;;;;;;;;5027266;28;20033;-83
2021/12/22 10:50:47;;;;;;;55.72;33.45;;;;;;;;;;5020583;28;20040;-81
2021/12/22 10:53:15;;;;;;;57.55;31.75;;;;;;;;;;5014462;28;20076;-83
2021/12/22 10:55:42;;;;;;;51.42;31.30;;;;;;;;;;5014956;28;20029;-83
2021/12/22 10:58:19;;;;;;;53.35;30.65;;;;;;;;;;5027055;28;20137;-82
2021/12/22 11:00:59;;;;;;;58.75;34.78;;;;;;;;;;5025291;28;20021;-82
2021/12/22 11:03:33;;;;;;;57.92;34.33;;;;;;;;;;5005326;28;20033;-82
2021/12/22 11:06:01;;;;;;;56.53;32.72;;;;;;;;;;5029108;28;20056;-84
2021/12/22 11:08:28;;;;;;;57.08;32.65;;;;;;;;;;5014407;28;20063;-82
2021/12/22 11:10:54;;;;;;;63.22;32.50;;;;;;;;;;5023698;28;20021;-83
2021/12/22 11:13:22;;;;;;;64.97;36.70;;;;;;;;;;5028781;28;20025;-84
2021/12/22 11:15:48;;;;;;;69.63;40.17;;;;;;;;;;5026476;28;20028;-83
2021/12/22 11:18:34;;;;;;;76.30;40.05;;;;;;;;;;5010229;28;20045;-83
2021/12/22 11:21:30;;;;;;;89.88;45.20;;;;;;;;;;5004104;28;20029;-82
2021/12/22 11:23:56;;;;;;;80.32;47.70;;;;;;;;;;5004391;28;20120;-82
2021/12/22 11:26:22;;;;;;;80.60;44.88;;;;;;;;;;5005710;28;20029;-83
2021/12/22 11:28:49;;;;;;;86.22;48.60;;;;;;;;;;5027131;28;20028;-83
2021/12/22 11:31:15;;;;;;;94.72;52.42;;;;;;;;;;5017619;28;20033;-82
2021/12/22 11:33:45;;;;;;;90.30;54.25;;;;;;;;;;5029315;28;20131;-82
2021/12/22 11:36:12;;;;;;;95.63;54.58;;;;;;;;;;5004896;28;20133;-83
2021/12/22 11:38:38;;;;;;;97.32;55.25;;;;;;;;;;5023053;28;20028;-81
2021/12/22 11:41:12;;;;;;;103.75;59.60;;;;;;;;;;5025852;28;20017;-82
2021/12/22 11:43:40;;;;;;;101.57;59.97;;;;;;;;;;5024055;28;20026;-83
2021/12/22 11:46:07;;;;;;;103.15;60.50;;;;;;;;;;5018478;28;20105;-83
2021/12/22 11:48:34;;;;;;;99.32;57.30;;;;;;;;;;5021258;28;20428;-82
2021/12/22 11:51:01;;;;;;;101.75;56.20;;;;;;;;;;5025157;28;20045;-82
2021/12/22 11:53:47;;;;;;;93.55;53.28;;;;;;;;;;4987591;28;20477;-83
2021/12/22 11:56:33;;;;;;;93.55;52.83;;;;;;;;;;5008079;28;20025;-84
2021/12/22 11:59:00;;;;;;;94.85;52.63;;;;;;;;;;5030485;28;20025;-82
2021/12/22 12:01:26;;;;;;;103.68;57.67;;;;;;;;;;5024905;28;20026;-83
2021/12/22 12:04:10;;;;;;;50.28;30.92;;;;;;;;;;5019411;28;20159;-83
2021/12/22 12:06:52;;;;;;;58.33;25.70;;;;;;;;;;5021381;28;20025;-81
2021/12/22 12:09:23;;;;;;;51.58;27.58;;;;;;;;;;5024165;28;20034;-84
2021/12/22 12:11:54;;;;;;;55.67;29.48;;;;;;;;;;5025047;28;20614;-83
2021/12/22 12:23:18;;;;;;;82.05;46.67;;;;;;;;;;5025416;28;20138;-83
2021/12/22 12:25:44;;;;;;;73.57;41.65;;;;;;;;;;5026424;28;20106;-82
2021/12/22 12:28:15;;;;;;;78.15;41.00;;;;;;;;;;5008507;28;20030;-82
2021/12/22 12:30:46;;;;;;;77.05;42.92;;;;;;;;;;5022378;28;20057;-83
2021/12/22 12:33:23;;;;;;;75.20;42.30;;;;;;;;;;5030338;28;20021;-82
2021/12/22 12:35:56;;;;;;;82.82;45.05;;;;;;;;;;5014239;28;20029;-84
2021/12/22 12:38:30;;;;;;;80.72;42.80;;;;;;;;;;5010079;28;20021;-83
2021/12/22 12:41:05;;;;;;;68.85;43.03;;;;;;;;;;5013724;28;20033;-82
2021/12/22 12:43:53;;;;;;;75.45;43.50;;;;;;;;;;5027070;28;20049;-82
2021/12/22 12:46:28;;;;;;;85.90;44.47;;;;;;;;;;5025379;28;20029;-83
2021/12/22 12:49:15;;;;;;;86.15;46.00;;;;;;;;;;5029748;28;20104;-83
2021/12/22 12:51:47;;;;;;;93.60;48.95;;;;;;;;;;5026124;28;20026;-82
2021/12/22 12:54:17;;;;;;;91.60;49.58;;;;;;;;;;5012258;28;20519;-84
2021/12/22 12:56:48;;;;;;;99.97;51.28;;;;;;;;;;5029501;28;20033;-84
2021/12/22 12:59:18;;;;;;;108.00;52.25;;;;;;;;;;5006005;28;20033;-83
2021/12/22 13:01:47;;;;;;;108.18;50.78;;;;;;;;;;5013216;28;20048;-83
2021/12/22 13:04:22;;;;;;;86.78;45.95;;;;;;;;;;5013097;28;20029;-84
2021/12/22 13:06:49;;;;;;;98.57;48.17;;;;;;;;;;5028870;28;20055;-84
2021/12/22 13:09:26;;;;;;;102.60;51.03;;;;;;;;;;5027735;28;20029;-82
2021/12/22 13:11:59;;;;;;;111.32;56.15;;;;;;;;;;5010185;28;20044;-82
2021/12/22 13:17:18;;;;;;;110.82;56.33;;;;;;;;;;5026982;28;20069;-82
2021/12/22 13:19:47;;;;;;;118.68;57.58;;;;;;;;;;5026520;28;20040;-83
2021/12/22 13:22:21;;;;;;;119.25;59.28;;;;;;;;;;5007751;28;20473;-84
2021/12/22 13:24:48;;;;;;;119.80;58.33;;;;;;;;;;5029681;28;20029;-83
2021/12/22 13:27:33;;;;;;;97.25;51.10;;;;;;;;;;5028354;28;20123;-81
2021/12/22 13:30:13;;;;;;;101.82;51.15;;;;;;;;;;5030973;28;20029;-81
2021/12/22 13:32:57;;;;;;;114.88;55.33;;;;;;;;;;5028287;28;20038;-83
2021/12/22 13:35:28;;;;;;;105.57;50.55;;;;;;;;;;5008892;28;20511;-82
2021/12/22 13:37:57;;;;;;;90.30;42.42;;;;;;;;;;5026971;28;20028;-83
2021/12/22 13:40:35;;;;;;;96.85;48.85;;;;;;;;;;5010526;28;20064;-82
2021/12/22 13:43:02;;;;;;;104.50;51.72;;;;;;;;;;5013681;28;20033;-82
2021/12/22 13:45:28;;;;;;;88.50;38.05;;;;;;;;;;5026115;28;20033;-83
2021/12/22 13:47:55;;;;;;;63.05;25.50;;;;;;;;;;5026870;28;20033;-83
2021/12/22 13:50:21;;;;;;;74.78;22.10;;;;;;;;;;5013931;28;20033;-83
2021/12/22 13:52:48;;;;;;;65.90;20.45;;;;;;;;;;5030424;28;20489;-83
2021/12/22 13:55:14;;;;;;;67.45;19.15;;;;;;;;;;5028007;28;20078;-82
2021/12/22 13:57:40;;;;;;;61.75;18.55;;;;;;;;;;5033433;28;20029;-83
2021/12/22 14:00:08;;;;;;;69.43;20.70;;;;;;;;;;5030416;28;20031;-82
2021/12/22 14:02:35;;;;;;;66.68;21.13;;;;;;;;;;5029775;28;20033;-84
2021/12/22 14:05:18;;;;;;;68.25;20.55;;;;;;;;;;5033562;28;20021;-84
2021/12/22 14:07:45;;;;;;;71.15;25.02;;;;;;;;;;5028561;28;20082;-84
2021/12/22 14:10:13;;;;;;;85.35;28.60;;;;;;;;;;5030095;28;20029;-83
2021/12/22 14:12:42;;;;;;;75.57;29.00;;;;;;;;;;5027302;28;20431;-83
2021/12/22 14:15:09;;;;;;;74.38;27.35;;;;;;;;;;5030857;28;20093;-84
2021/12/22 14:17:38;;;;;;;79.78;26.88;;;;;;;;;;5023471;28;20041;-83
2021/12/22 14:20:17;;;;;;;78.82;28.67;;;;;;;;;;5023457;28;20022;-82
2021/12/22 14:23:02;;;;;;;76.50;28.08;;;;;;;;;;5024177;28;20100;-83
2021/12/22 14:25:36;;;;;;;75.53;26.40;;;;;;;;;;5029718;28;20110;-81
2021/12/22 14:28:26;;;;;;;89.15;27.70;;;;;;;;;;5010674;28;21596;-84
2021/12/22 14:30:52;;;;;;;74.93;28.70;;;;;;;;;;5013112;28;20060;-82
2021/12/22 14:33:20;;;;;;;75.85;24.35;;;;;;;;;;5013241;28;20120;-82
2021/12/22 14:35:54;;;;;;;72.03;24.92;;;;;;;;;;5024666;28;20024;-82
2021/12/22 14:38:21;;;;;;;66.55;21.17;;;;;;;;;;5030959;28;20026;-82
2021/12/22 14:40:56;;;;;;;75.65;22.13;;;;;;;;;;5032084;28;20037;-83
2021/12/22 14:43:22;;;;;;;75.50;22.23;;;;;;;;;;5029383;28;20488;-84
2021/12/22 14:45:50;;;;;;;79.30;24.20;;;;;;;;;;5026228;28;20448;-83
2021/12/22 14:48:30;;;;;;;68.03;22.63;;;;;;;;;;5034680;28;20074;-81
2021/12/22 14:51:08;;;;;;;81.70;25.25;;;;;;;;;;5023392;28;20076;-85
2021/12/22 14:53:37;;;;;;;79.75;23.90;;;;;;;;;;5031925;28;20469;-84
2021/12/22 14:56:08;;;;;;;68.72;22.13;;;;;;;;;;5009549;28;20045;-81
2021/12/22 14:58:34;;;;;;;73.65;25.02;;;;;;;;;;5011911;28;20120;-84